North Lawrence, OH (44666)

10:41 AM EDT on October 01, 2014 (GMT -0400)
Jackson Bog | Change Station
CLOSE
Current Station
Personal Weather Station
Location: Massillon, OH
Elevation: 1033 ft
Nearby Weather Stations

Elev 1033 ft 40.85 °N, 81.51 °W | Updated 2 seconds ago

Overcast
Overcast
58.6 °F
Feels Like 58.6 °F
N
0.0
Wind Variable Wind from NNE
Gusts 0.0 mph

Today
High -- | Low -- °F
--% Chance of Precip.
Yesterday
High -- | Low -- °F
Precip. -- in
7:23 AM 7:08 PM
Waxing Crescent, 48% visible
Pressure 30.04 in
Visibility 7.0 miles
Clouds Mostly Cloudy 500 ft
Overcast 1800 ft
Dew Point 57 °F
Humidity 93%
Rainfall 0.00 in
Snow Depth Not available.
UV 0.0 out of 12
Pollen 1.40 out of 12
Air Quality Not available.
Flu Activity Not available.
METAR KCAK 011351Z 00000KT 7SM BKN005 OVC018 15/12 A3004 RMK AO2 SLP172 T01500122

More Conditions Fewer Conditions

Pressure 30.04 in
Visibility 7.0 miles
Clouds Mostly Cloudy 500 ft
Overcast 1800 ft
Dew Point 57 °F
Humidity 93%
Rainfall 0.00 in
Snow Depth Not available.
UV 0.0 out of 12
Pollen 1.40 out of 12
Air Quality Not available.
Flu Activity Not available.
METAR KCAK 011351Z 00000KT 7SM BKN005 OVC018 15/12 A3004 RMK AO2 SLP172 T01500122

More Conditions Fewer Conditions

10-Day Weather Forecast

Almanac

Astronomy

Oct. 01, 2014 Rise Set
Actual Time 7:23 AM EDT 7:08 PM EDT
Civil Twilight 6:55 AM EDT 7:35 PM EDT
Nautical Twilight 6:23 AM EDT 8:07 PM EDT
Astronomical Twilight 5:51 AM EDT 8:39 PM EDT
Moon 2:24 PM EDT No Moon Set
Length of Visible Light 12h 40m
Length of Day
11h 45m
Tomorrow will be 2m 40s shorter.
Waxing Crescent, 48% of the Moon is Illuminated
Today
Waxing Crescent
Oct 1
First Quarter
Oct 8
Full
Oct 15
Last Quarter
Oct 23
New

Today's Extremes

State Highs State Lows

Community

WunderPhotos

Upload Photos

1,757,960 photos uploaded!

Nearby

Snow Depth

Station Depth Elevation
No new snow has been reported.

Earthquake Activity

City Distance Mag. Time & Date
No recent earthquake activity has been reported nearby.
Minimum magnitude displayed is 2.5.

Coastal Water Temperatures

Place Temperature
No Stations Reporting

Nearby Weather Stations